createdAt,value
2023-02-28T07:18:56.987Z,95597.25
2023-02-28T07:21:26.143Z,95588.41
2023-02-28T07:23:52.942Z,95592.78
2023-02-28T07:26:23.313Z,95591.72
2023-02-28T07:28:50.469Z,95592.63
2023-02-28T07:31:19.570Z,95584.47
2023-02-28T07:33:49.032Z,95593.69
2023-02-28T07:36:18.119Z,95596.25
2023-02-28T07:38:48.609Z,95594.06
2023-02-28T07:41:23.554Z,95590.91
2023-02-28T07:43:52.329Z,95594.03
2023-02-28T07:46:22.391Z,95590.03
2023-02-28T07:48:53.866Z,95585.44
2023-02-28T07:51:23.748Z,95586.91
2023-02-28T07:53:50.591Z,95584.94
2023-02-28T07:56:19.895Z,95589.25
2023-02-28T07:58:49.106Z,95581.75
2023-02-28T08:01:15.840Z,95578.13
2023-02-28T08:03:45.743Z,95583.25
2023-02-28T08:06:20.267Z,95578.59
2023-02-28T08:08:48.494Z,95582.88
2023-02-28T08:11:15.264Z,95581.88
2023-02-28T08:13:45.203Z,95574.56
2023-02-28T08:16:15.337Z,95579.03
2023-02-28T08:18:42.371Z,95577.22
2023-02-28T08:21:09.962Z,95584.38
2023-02-28T08:23:37.151Z,95581.34
2023-02-28T08:26:06.434Z,95578.91
2023-02-28T08:28:33.423Z,95586.00
2023-02-28T08:31:00.224Z,95580.72
2023-02-28T08:33:27.703Z,95576.28
2023-02-28T08:35:57.258Z,95576.28
2023-02-28T08:38:24.566Z,95582.34
2023-02-28T08:40:51.559Z,95584.63
2023-02-28T08:43:18.584Z,95588.47
2023-02-28T08:45:47.700Z,95581.16
2023-02-28T08:48:14.709Z,95578.09
2023-02-28T08:50:41.810Z,95581.97
2023-02-28T08:53:11.258Z,95583.38
2023-02-28T08:55:37.956Z,95583.78
2023-02-28T08:58:04.903Z,95586.03
2023-02-28T09:00:31.832Z,95585.59
2023-02-28T09:03:03.221Z,95593.16
2023-02-28T09:05:31.156Z,95589.28
2023-02-28T09:07:58.230Z,95578.69
2023-02-28T09:10:27.035Z,95589.91
2023-02-28T09:12:54.214Z,95580.72
2023-02-28T09:15:23.174Z,95583.97
2023-02-28T09:17:50.027Z,95588.88
2023-02-28T09:20:17.863Z,95587.56
2023-02-28T09:22:44.689Z,95584.00
2023-02-28T09:25:11.629Z,95582.34
2023-02-28T09:27:42.279Z,95575.06
2023-02-28T09:30:09.556Z,95582.16
2023-02-28T09:32:40.859Z,95577.91
2023-02-28T09:35:07.983Z,95576.06
2023-02-28T09:37:36.835Z,95573.41
2023-02-28T09:40:04.874Z,95575.44
2023-02-28T09:42:33.260Z,95574.66
2023-02-28T09:45:00.102Z,95580.31
2023-02-28T09:47:34.224Z,95566.47
2023-02-28T09:50:14.898Z,95570.97
2023-02-28T09:52:41.658Z,95564.44
2023-02-28T09:55:41.538Z,95563.63
2023-02-28T09:58:23.525Z,95565.06
2023-02-28T10:00:56.963Z,95565.66
2023-02-28T10:03:58.373Z,95560.38
2023-02-28T10:06:29.685Z,95556.09
2023-02-28T10:08:59.746Z,95559.53
2023-02-28T10:11:29.341Z,95557.47
2023-02-28T10:14:03.601Z,95546.09
2023-02-28T10:16:37.564Z,95536.56
2023-02-28T10:19:10.069Z,95542.03
2023-02-28T10:21:41.247Z,95538.78
2023-02-28T10:24:24.295Z,95541.44
2023-02-28T10:26:52.389Z,95534.28
2023-02-28T10:29:23.712Z,95540.81
2023-02-28T10:31:53.284Z,95523.31
2023-02-28T10:34:22.324Z,95523.66
2023-02-28T10:36:50.775Z,95527.91
2023-02-28T10:39:38.608Z,95519.91
2023-02-28T10:42:05.597Z,95516.41
2023-02-28T10:44:32.323Z,95514.94
2023-02-28T10:47:01.439Z,95507.91
2023-02-28T10:49:29.788Z,95506.72
2023-02-28T10:51:59.787Z,95503.78
2023-02-28T10:54:36.400Z,95497.47
2023-02-28T10:57:23.194Z,95505.41
2023-02-28T10:59:53.730Z,95484.25
2023-02-28T11:05:01.750Z,95487.81
2023-02-28T11:07:37.458Z,95483.75
2023-02-28T11:10:14.620Z,95478.44
2023-02-28T11:12:51.898Z,95482.59
2023-02-28T11:15:29.598Z,95485.84
2023-02-28T11:18:17.579Z,95483.47
2023-02-28T11:20:51.324Z,95481.50
2023-02-28T11:23:21.170Z,95467.31
2023-02-28T11:25:50.480Z,95481.50
2023-02-28T11:28:27.815Z,95469.91
2023-02-28T11:31:07.052Z,95466.19
2023-02-28T11:33:53.357Z,95476.94
2023-02-28T11:36:30.011Z,95470.63
2023-02-28T11:39:02.750Z,95460.03
2023-02-28T11:41:40.845Z,95460.03
2023-02-28T11:44:19.924Z,95463.28
2023-02-28T11:46:54.757Z,95456.78
2023-02-28T11:49:25.194Z,95463.28
2023-02-28T11:52:15.329Z,95458.84
2023-02-28T11:54:51.147Z,95446.66
2023-02-28T11:57:45.322Z,95452.13
2023-02-28T12:00:33.565Z,95454.56
2023-02-28T12:03:30.328Z,95453.53
2023-02-28T12:06:20.492Z,95452.75
2023-02-28T12:08:47.135Z,95462.06
2023-02-28T12:11:22.535Z,95452.06
2023-02-28T12:14:34.131Z,95456.78
2023-02-28T12:17:15.887Z,95452.69
2023-02-28T12:20:04.124Z,95445.19
2023-02-28T12:22:33.897Z,95443.22
2023-02-28T12:25:24.248Z,95443.66
2023-02-28T12:27:51.455Z,95444.06
2023-02-28T12:30:29.239Z,95455.47
2023-02-28T12:33:04.267Z,95458.31
2023-02-28T12:35:56.871Z,95456.28
2023-02-28T12:38:28.381Z,95449.34
2023-02-28T12:41:05.361Z,95452.00
2023-02-28T12:43:35.511Z,95454.66
2023-02-28T12:46:39.567Z,95444.50
2023-02-28T12:49:12.461Z,95443.69
2023-02-28T12:51:39.304Z,95437.38
2023-02-28T12:54:31.892Z,95445.91
2023-02-28T12:57:19.814Z,95438.34
2023-02-28T12:59:55.358Z,95430.56
2023-02-28T13:02:40.390Z,95435.13
2023-02-28T13:05:10.142Z,95437.97
2023-02-28T13:07:55.696Z,95443.66
2023-02-28T13:10:27.967Z,95438.72
2023-02-28T13:12:55.873Z,95437.34
2023-02-28T13:15:29.053Z,95438.13
2023-02-28T13:17:57.721Z,95439.53
2023-02-28T13:20:25.264Z,95437.50
2023-02-28T13:22:53.805Z,95433.06
2023-02-28T13:25:23.554Z,95431.81
2023-02-28T13:27:57.987Z,95432.63
2023-02-28T13:30:56.891Z,95426.91
2023-02-28T13:33:29.981Z,95435.88
2023-02-28T13:36:15.480Z,95437.34
2023-02-28T13:39:05.168Z,95425.72
2023-02-28T13:41:32.148Z,95418.78
2023-02-28T13:44:07.023Z,95428.56
2023-02-28T13:46:37.818Z,95416.53
2023-02-28T13:49:26.541Z,95424.50
2023-02-28T13:52:17.420Z,95400.09
2023-02-28T13:54:59.494Z,95411.09
2023-02-28T13:58:06.441Z,95404.56
2023-02-28T14:00:42.512Z,95419.63
2023-02-28T14:03:25.769Z,95420.84
2023-02-28T14:06:14.841Z,95404.19
2023-02-28T14:08:53.589Z,95421.88
2023-02-28T14:11:33.518Z,95421.09
2023-02-28T14:14:00.663Z,95426.16
2023-02-28T14:16:31.082Z,95426.59
2023-02-28T14:19:11.031Z,95407.06
2023-02-28T14:21:39.442Z,95422.13
2023-02-28T14:24:12.351Z,95417.25
2023-02-28T14:27:03.831Z,95423.56
2023-02-28T14:29:48.685Z,95420.94
2023-02-28T14:32:23.057Z,95422.16
2023-02-28T14:35:27.068Z,95423.97
2023-02-28T14:37:54.062Z,95426.63
2023-02-28T14:40:36.125Z,95429.50
2023-02-28T14:43:07.007Z,95421.75
2023-02-28T14:45:38.541Z,95425.44
2023-02-28T14:48:05.739Z,95430.13
2023-02-28T14:50:36.700Z,95425.88
2023-02-28T14:53:05.371Z,95427.69
2023-02-28T14:55:33.607Z,95428.94
2023-02-28T14:58:04.337Z,95437.72
2023-02-28T15:00:32.628Z,95438.91
2023-02-28T15:03:01.503Z,95433.63
2023-02-28T15:05:32.378Z,95428.56
2023-02-28T15:08:12.828Z,95425.91
2023-02-28T15:10:41.206Z,95416.13
2023-02-28T15:13:09.259Z,95423.47
2023-02-28T15:16:14.150Z,95420.81
2023-02-28T15:18:53.634Z,95423.06
2023-02-28T15:21:24.416Z,95417.56
2023-02-28T15:23:54.604Z,95421.25
2023-02-28T15:26:22.911Z,95426.53
2023-02-28T15:28:52.612Z,95435.50
2023-02-28T15:31:36.266Z,95440.19
2023-02-28T15:34:06.942Z,95433.28
2023-02-28T15:36:38.153Z,95434.72
2023-02-28T15:39:22.484Z,95431.88
2023-02-28T15:41:49.371Z,95437.34
2023-02-28T15:44:36.291Z,95434.13
2023-02-28T15:47:08.496Z,95439.22
2023-02-28T15:50:00.685Z,95430.44
2023-02-28T15:52:41.856Z,95434.50
2023-02-28T15:55:14.335Z,95435.34
2023-02-28T15:57:43.362Z,95439.81
2023-02-28T16:00:14.948Z,95441.63
2023-02-28T16:02:41.886Z,95442.66
2023-02-28T16:05:08.566Z,95451.63
2023-02-28T16:07:39.229Z,95450.41
2023-02-28T16:10:06.862Z,95455.28
2023-02-28T16:12:34.962Z,95460.16
2023-02-28T16:15:24.021Z,95470.75
2023-02-28T16:17:50.764Z,95479.31
2023-02-28T16:20:19.564Z,95485.19
2023-02-28T16:22:46.904Z,95487.03
2023-02-28T16:25:15.036Z,95502.09
2023-02-28T16:27:41.978Z,95494.75
2023-02-28T16:30:09.409Z,95508.00
2023-02-28T16:32:37.005Z,95517.56
2023-02-28T16:35:03.892Z,95509.03
2023-02-28T16:37:30.843Z,95521.22
2023-02-28T16:39:57.559Z,95511.84
2023-02-28T16:42:26.336Z,95522.44
2023-02-28T16:44:56.362Z,95524.06
2023-02-28T16:47:27.717Z,95530.97
2023-02-28T16:49:54.582Z,95536.25
2023-02-28T16:52:26.416Z,95531.78
2023-02-28T16:54:55.478Z,95521.22
2023-02-28T16:57:22.962Z,95534.63
2023-02-28T16:59:51.910Z,95532.22
2023-02-28T17:02:20.457Z,95529.34
2023-02-28T17:04:49.706Z,95528.56
2023-02-28T17:07:19.676Z,95535.66
2023-02-28T17:09:51.585Z,95536.25
2023-02-28T17:12:18.603Z,95542.38
2023-02-28T17:14:45.484Z,95541.78
2023-02-28T17:17:30.341Z,95533.63
2023-02-28T17:19:57.267Z,95535.06
2023-02-28T17:22:24.135Z,95537.88
2023-02-28T17:24:50.935Z,95532.59
2023-02-28T17:27:17.563Z,95532.59
2023-02-28T17:29:44.275Z,95528.75
2023-02-28T17:32:17.863Z,95528.16
2023-02-28T17:34:46.854Z,95526.09
2023-02-28T17:37:13.880Z,95523.66
2023-02-28T17:39:42.988Z,95519.19
2023-02-28T17:42:12.129Z,95522.84
2023-02-28T17:44:41.197Z,95513.88
2023-02-28T17:47:07.958Z,95522.84
2023-02-28T17:49:34.687Z,95519.19
2023-02-28T17:52:01.489Z,95531.81
2023-02-28T17:54:30.779Z,95520.63
2023-02-28T17:56:57.602Z,95526.94
2023-02-28T17:59:24.290Z,95520.84
2023-02-28T18:01:51.783Z,95524.31
2023-02-28T18:04:18.523Z,95523.69
2023-02-28T18:06:48.388Z,95522.06
2023-02-28T18:09:16.117Z,95520.25
2023-02-28T18:11:50.088Z,95515.56
2023-02-28T18:14:17.140Z,95520.09
2023-02-28T18:16:46.217Z,95519.47
2023-02-28T18:19:17.553Z,95514.88
2023-02-28T18:21:45.224Z,95515.25
2023-02-28T18:24:12.454Z,95507.94
2023-02-28T18:26:39.523Z,95516.63
2023-02-28T18:29:06.779Z,95518.84
2023-02-28T18:31:36.316Z,95518.88
2023-02-28T18:34:03.185Z,95524.16
2023-02-28T18:36:34.529Z,95524.38
2023-02-28T18:39:01.551Z,95531.28
2023-02-28T18:41:30.558Z,95527.63
2023-02-28T18:43:57.330Z,95538.81
2023-02-28T18:46:24.324Z,95528.22
2023-02-28T18:48:51.196Z,95538.81
2023-02-28T18:51:20.072Z,95538.81
2023-02-28T18:53:46.937Z,95542.06
2023-02-28T18:56:15.198Z,95545.31
2023-02-28T18:58:45.059Z,95545.31
2023-02-28T19:01:26.954Z,95540.00
2023-02-28T19:03:53.729Z,95542.47
2023-02-28T19:06:20.556Z,95537.97
2023-02-28T19:08:49.278Z,95542.25
2023-02-28T19:11:17.608Z,95535.97
2023-02-28T19:13:44.483Z,95535.13
2023-02-28T19:16:11.645Z,95541.25
2023-02-28T19:18:38.836Z,95543.91
2023-02-28T19:21:11.266Z,95548.97
2023-02-28T19:23:38.486Z,95542.88
2023-02-28T19:26:16.164Z,95549.78
2023-02-28T19:28:45.182Z,95542.88
2023-02-28T19:31:16.308Z,95551.41
2023-02-28T19:33:45.246Z,95550.59
2023-02-28T19:36:12.645Z,95550.59
2023-02-28T19:38:40.037Z,95548.75
2023-02-28T19:41:09.269Z,95543.66
2023-02-28T19:43:38.418Z,95530.03
2023-02-28T19:46:05.680Z,95542.88
2023-02-28T19:48:35.370Z,95542.88
2023-02-28T19:51:03.653Z,95538.38
2023-02-28T19:53:30.994Z,95542.88
2023-02-28T19:56:00.605Z,95542.88
2023-02-28T19:58:27.620Z,95542.88
2023-02-28T20:00:54.573Z,95541.03
2023-02-28T20:03:23.911Z,95534.94
2023-02-28T20:06:03.066Z,95533.91
2023-02-28T20:08:29.884Z,95528.63
2023-02-28T20:11:04.067Z,95537.56
2023-02-28T20:13:33.469Z,95535.53
2023-02-28T20:16:06.196Z,95539.19
2023-02-28T20:18:33.743Z,95533.91
2023-02-28T20:21:01.968Z,95537.34
2023-02-28T20:23:29.280Z,95543.47
2023-02-28T20:25:59.930Z,95546.13
2023-02-28T20:28:26.776Z,95544.50
2023-02-28T20:30:53.627Z,95544.50
2023-02-28T20:33:20.596Z,95538.19
2023-02-28T20:35:49.291Z,95542.44
2023-02-28T20:38:16.054Z,95532.88
2023-02-28T20:40:43.015Z,95539.19
2023-02-28T20:43:09.869Z,95533.91
2023-02-28T20:45:37.085Z,95538.19
2023-02-28T20:48:04.066Z,95533.91
2023-02-28T20:50:31.703Z,95531.25
2023-02-28T20:52:58.428Z,95536.56
2023-02-28T20:55:25.309Z,95539.19
2023-02-28T20:57:54.195Z,95534.72
2023-02-28T21:00:22.470Z,95527.78
2023-02-28T21:02:49.178Z,95536.56
2023-02-28T21:05:18.047Z,95535.13
2023-02-28T21:07:44.794Z,95544.50
2023-02-28T21:10:12.177Z,95541.03
2023-02-28T21:12:41.109Z,95543.66
2023-02-28T21:15:08.612Z,95544.50
2023-02-28T21:17:35.497Z,95546.31
2023-02-28T21:20:02.228Z,95537.56
2023-02-28T21:22:29.032Z,95542.88
2023-02-28T21:24:55.863Z,95543.25
2023-02-28T21:27:24.680Z,95541.25
2023-02-28T21:29:53.882Z,95543.91
2023-02-28T21:32:22.915Z,95541.25
2023-02-28T21:34:52.541Z,95539.59
2023-02-28T21:37:21.934Z,95539.59
2023-02-28T21:39:48.668Z,95540.41
2023-02-28T21:42:18.490Z,95530.84
2023-02-28T21:44:45.302Z,95529.00
2023-02-28T21:47:12.322Z,95539.59
2023-02-28T21:49:41.362Z,95530.03
2023-02-28T21:52:10.119Z,95532.69
2023-02-28T21:54:36.948Z,95526.59
2023-02-28T21:57:03.761Z,95527.38
2023-02-28T21:59:30.721Z,95521.72
2023-02-28T22:01:59.572Z,95530.03
2023-02-28T22:04:26.242Z,95536.34
2023-02-28T22:06:54.438Z,95536.34
2023-02-28T22:09:21.293Z,95536.34
2023-02-28T22:11:48.048Z,95535.31
2023-02-28T22:14:14.799Z,95535.53
2023-02-28T22:16:51.124Z,95533.69
2023-02-28T22:19:19.729Z,95536.34
2023-02-28T22:21:47.551Z,95538.19
2023-02-28T22:24:20.194Z,95541.63
2023-02-28T22:26:46.931Z,95530.25
2023-02-28T22:29:15.718Z,95526.78
2023-02-28T22:31:42.541Z,95539.22
2023-02-28T22:34:10.718Z,95535.31
2023-02-28T22:36:40.569Z,95534.31
2023-02-28T22:39:07.438Z,95537.03
2023-02-28T22:41:34.300Z,95538.19
2023-02-28T22:44:01.992Z,95531.66
2023-02-28T22:46:29.981Z,95535.53
2023-02-28T22:49:01.352Z,95537.59
2023-02-28T22:51:27.987Z,95542.88
2023-02-28T22:53:55.206Z,95532.31
2023-02-28T22:56:23.023Z,95537.59
2023-02-28T22:58:54.044Z,95530.06
2023-02-28T23:01:24.547Z,95526.63
2023-02-28T23:03:51.487Z,95535.19
2023-02-28T23:06:24.878Z,95528.69
2023-02-28T23:08:57.115Z,95527.47
2023-02-28T23:11:29.185Z,95515.28
2023-02-28T23:13:58.631Z,95520.94
2023-02-28T23:16:26.414Z,95524.41
2023-02-28T23:18:53.223Z,95524.59
2023-02-28T23:21:19.903Z,95519.31
2023-02-28T23:23:48.856Z,95516.06
2023-02-28T23:26:15.600Z,95515.88
2023-02-28T23:28:42.405Z,95512.81
2023-02-28T23:31:11.313Z,95503.88
2023-02-28T23:33:40.397Z,95496.56
2023-02-28T23:36:09.884Z,95483.13
2023-02-28T23:38:36.881Z,95483.75
2023-02-28T23:41:09.410Z,95480.06
2023-02-28T23:43:36.457Z,95473.78
2023-02-28T23:46:03.828Z,95470.94
2023-02-28T23:48:32.930Z,95472.56
2023-02-28T23:51:08.469Z,95473.16
2023-02-28T23:53:36.010Z,95468.66
2023-02-28T23:56:03.066Z,95459.50
2023-02-28T23:58:30.044Z,95459.50
